sensor_id;sensor_type;location;lat;lon;timestamp;pressure;altitude;pressure_sealevel;temperature;humidity
77469;BME280;68840;50.272;12.818;2023-04-03T00:00:06;96728;;;2.7;57.4
77469;BME280;68840;50.272;12.818;2023-04-03T00:02:05;96728;;;2.7;57.4
77469;BME280;68840;50.272;12.818;2023-04-03T00:04:06;96730;;;2.7;57.2
77469;BME280;68840;50.272;12.818;2023-04-03T00:06:07;96734;;;2.7;57.1
77469;BME280;68840;50.272;12.818;2023-04-03T00:08:07;96737;;;2.7;57.5
77469;BME280;68840;50.272;12.818;2023-04-03T00:10:06;96739;;;2.7;57.7
77469;BME280;68840;50.272;12.818;2023-04-03T00:12:05;96739;;;2.7;57.8
77469;BME280;68840;50.272;12.818;2023-04-03T00:14:05;96741;;;2.7;57.9
77469;BME280;68840;50.272;12.818;2023-04-03T00:16:06;96739;;;2.7;58.0
77469;BME280;68840;50.272;12.818;2023-04-03T00:18:06;96742;;;2.7;58.3
77469;BME280;68840;50.272;12.818;2023-04-03T00:20:07;96742;;;2.7;58.5
77469;BME280;68840;50.272;12.818;2023-04-03T00:22:05;96740;;;2.7;58.7
77469;BME280;68840;50.272;12.818;2023-04-03T00:24:05;96738;;;2.7;58.6
77469;BME280;68840;50.272;12.818;2023-04-03T00:26:05;96735;;;2.7;58.9
77469;BME280;68840;50.272;12.818;2023-04-03T00:28:05;96733;;;2.7;58.9
77469;BME280;68840;50.272;12.818;2023-04-03T00:30:07;96730;;;2.6;58.8
77469;BME280;68840;50.272;12.818;2023-04-03T00:32:05;96730;;;2.6;58.7
77469;BME280;68840;50.272;12.818;2023-04-03T00:34:05;96729;;;2.6;58.8
77469;BME280;68840;50.272;12.818;2023-04-03T00:36:07;96729;;;2.6;58.8
77469;BME280;68840;50.272;12.818;2023-04-03T00:38:06;96731;;;2.6;58.9
77469;BME280;68840;50.272;12.818;2023-04-03T00:40:07;96729;;;2.6;59.1
77469;BME280;68840;50.272;12.818;2023-04-03T00:42:05;96726;;;2.6;58.8
77469;BME280;68840;50.272;12.818;2023-04-03T00:44:19;96725;;;2.6;58.4
77469;BME280;68840;50.272;12.818;2023-04-03T00:46:05;96730;;;2.6;58.2
77469;BME280;68840;50.272;12.818;2023-04-03T00:48:08;96733;;;2.6;58.4
77469;BME280;68840;50.272;12.818;2023-04-03T00:50:06;96730;;;2.6;58.4
77469;BME280;68840;50.272;12.818;2023-04-03T00:52:09;96729;;;2.6;58.4
77469;BME280;68840;50.272;12.818;2023-04-03T00:54:07;96727;;;2.6;58.3
77469;BME280;68840;50.272;12.818;2023-04-03T00:56:08;96729;;;2.6;58.7
77469;BME280;68840;50.272;12.818;2023-04-03T00:58:07;96736;;;2.5;58.6
77469;BME280;68840;50.272;12.818;2023-04-03T01:00:10;96737;;;2.5;58.2
77469;BME280;68840;50.272;12.818;2023-04-03T01:02:05;96735;;;2.5;57.9
77469;BME280;68840;50.272;12.818;2023-04-03T01:04:24;96734;;;2.5;58.1
77469;BME280;68840;50.272;12.818;2023-04-03T01:06:05;96743;;;2.5;58.0
77469;BME280;68840;50.272;12.818;2023-04-03T01:08:06;96748;;;2.5;58.1
77469;BME280;68840;50.272;12.818;2023-04-03T01:10:08;96748;;;2.5;58.5
77469;BME280;68840;50.272;12.818;2023-04-03T01:12:14;96748;;;2.5;58.8
77469;BME280;68840;50.272;12.818;2023-04-03T01:14:06;96749;;;2.5;58.9
77469;BME280;68840;50.272;12.818;2023-04-03T01:16:06;96751;;;2.5;58.7
77469;BME280;68840;50.272;12.818;2023-04-03T01:18:09;96752;;;2.5;58.9
77469;BME280;68840;50.272;12.818;2023-04-03T01:22:15;96758;;;2.5;59.0
77469;BME280;68840;50.272;12.818;2023-04-03T01:24:15;96756;;;2.5;58.5
77469;BME280;68840;50.272;12.818;2023-04-03T01:26:05;96750;;;2.5;58.5
77469;BME280;68840;50.272;12.818;2023-04-03T01:28:07;96747;;;2.4;58.5
77469;BME280;68840;50.272;12.818;2023-04-03T01:30:07;96750;;;2.4;58.9
77469;BME280;68840;50.272;12.818;2023-04-03T01:32:06;96753;;;2.4;59.3
77469;BME280;68840;50.272;12.818;2023-04-03T01:34:05;96753;;;2.4;59.1
77469;BME280;68840;50.272;12.818;2023-04-03T01:36:07;96753;;;2.3;59.0
77469;BME280;68840;50.272;12.818;2023-04-03T01:38:06;96753;;;2.3;59.0
77469;BME280;68840;50.272;12.818;2023-04-03T01:40:06;96755;;;2.2;59.2
77469;BME280;68840;50.272;12.818;2023-04-03T01:42:05;96757;;;2.2;59.3
77469;BME280;68840;50.272;12.818;2023-04-03T01:44:06;96761;;;2.2;59.5
77469;BME280;68840;50.272;12.818;2023-04-03T01:46:05;96762;;;2.1;59.6
77469;BME280;68840;50.272;12.818;2023-04-03T01:48:05;96763;;;2.1;59.8
77469;BME280;68840;50.272;12.818;2023-04-03T01:50:06;96764;;;2.1;59.9
77469;BME280;68840;50.272;12.818;2023-04-03T01:52:05;96767;;;2.1;60.1
77469;BME280;68840;50.272;12.818;2023-04-03T01:54:05;96764;;;2.0;60.2
77469;BME280;68840;50.272;12.818;2023-04-03T01:56:06;96766;;;2.0;60.4
77469;BME280;68840;50.272;12.818;2023-04-03T01:58:05;96768;;;2.0;60.3
77469;BME280;68840;50.272;12.818;2023-04-03T02:00:07;96769;;;2.0;60.2
77469;BME280;68840;50.272;12.818;2023-04-03T02:02:05;96769;;;2.0;59.8
77469;BME280;68840;50.272;12.818;2023-04-03T02:04:06;96772;;;2.0;59.8
77469;BME280;68840;50.272;12.818;2023-04-03T02:06:06;96768;;;2.0;60.0
77469;BME280;68840;50.272;12.818;2023-04-03T02:08:06;96768;;;2.0;60.0
77469;BME280;68840;50.272;12.818;2023-04-03T02:10:06;96769;;;2.0;60.1
77469;BME280;68840;50.272;12.818;2023-04-03T02:12:05;96767;;;2.0;60.4
77469;BME280;68840;50.272;12.818;2023-04-03T02:14:05;96766;;;2.0;60.5
77469;BME280;68840;50.272;12.818;2023-04-03T02:16:07;96765;;;1.9;60.3
77469;BME280;68840;50.272;12.818;2023-04-03T02:18:05;96766;;;1.9;60.1
77469;BME280;68840;50.272;12.818;2023-04-03T02:20:07;96768;;;1.9;59.8
77469;BME280;68840;50.272;12.818;2023-04-03T02:22:05;96768;;;1.9;58.9
77469;BME280;68840;50.272;12.818;2023-04-03T02:24:06;96767;;;1.8;58.8
77469;BME280;68840;50.272;12.818;2023-04-03T02:26:08;96765;;;1.8;58.6
77469;BME280;68840;50.272;12.818;2023-04-03T02:28:05;96767;;;1.8;59.0
77469;BME280;68840;50.272;12.818;2023-04-03T02:30:06;96770;;;1.8;59.2
77469;BME280;68840;50.272;12.818;2023-04-03T02:32:05;96769;;;1.8;59.4
77469;BME280;68840;50.272;12.818;2023-04-03T02:34:05;96770;;;1.7;59.1
77469;BME280;68840;50.272;12.818;2023-04-03T02:36:07;96774;;;1.7;59.3
77469;BME280;68840;50.272;12.818;2023-04-03T02:38:05;96774;;;1.7;59.6
77469;BME280;68840;50.272;12.818;2023-04-03T02:40:06;96775;;;1.6;59.6
77469;BME280;68840;50.272;12.818;2023-04-03T02:42:06;96775;;;1.6;59.6
77469;BME280;68840;50.272;12.818;2023-04-03T02:44:06;96776;;;1.6;59.6
77469;BME280;68840;50.272;12.818;2023-04-03T02:46:06;96772;;;1.6;59.5
77469;BME280;68840;50.272;12.818;2023-04-03T02:48:05;96774;;;1.6;59.1
77469;BME280;68840;50.272;12.818;2023-04-03T02:50:06;96777;;;1.6;59.3
77469;BME280;68840;50.272;12.818;2023-04-03T02:52:05;96779;;;1.5;59.3
77469;BME280;68840;50.272;12.818;2023-04-03T02:54:05;96782;;;1.5;59.6
77469;BME280;68840;50.272;12.818;2023-04-03T02:56:05;96782;;;1.5;59.7
77469;BME280;68840;50.272;12.818;2023-04-03T02:58:05;96783;;;1.5;60.1
77469;BME280;68840;50.272;12.818;2023-04-03T03:00:07;96784;;;1.5;60.2
77469;BME280;68840;50.272;12.818;2023-04-03T03:02:05;96784;;;1.5;59.9
77469;BME280;68840;50.272;12.818;2023-04-03T03:04:05;96784;;;1.5;59.8
77469;BME280;68840;50.272;12.818;2023-04-03T03:06:07;96786;;;1.5;59.9
77469;BME280;68840;50.272;12.818;2023-04-03T03:08:05;96787;;;1.5;59.8
77469;BME280;68840;50.272;12.818;2023-04-03T03:10:06;96791;;;1.4;59.8
77469;BME280;68840;50.272;12.818;2023-04-03T03:12:05;96789;;;1.4;60.0
77469;BME280;68840;50.272;12.818;2023-04-03T03:14:05;96788;;;1.4;60.0
77469;BME280;68840;50.272;12.818;2023-04-03T03:16:06;96789;;;1.4;60.0
77469;BME280;68840;50.272;12.818;2023-04-03T03:18:05;96792;;;1.3;60.2
77469;BME280;68840;50.272;12.818;2023-04-03T03:20:06;96793;;;1.3;60.0
77469;BME280;68840;50.272;12.818;2023-04-03T03:22:05;96794;;;1.3;59.9
77469;BME280;68840;50.272;12.818;2023-04-03T03:24:06;96795;;;1.2;60.1
77469;BME280;68840;50.272;12.818;2023-04-03T03:26:07;96796;;;1.2;60.2
77469;BME280;68840;50.272;12.818;2023-04-03T03:28:06;96795;;;1.2;60.0
77469;BME280;68840;50.272;12.818;2023-04-03T03:30:06;96792;;;1.2;59.9
77469;BME280;68840;50.272;12.818;2023-04-03T03:32:05;96793;;;1.2;60.0
77469;BME280;68840;50.272;12.818;2023-04-03T03:34:05;96795;;;1.1;59.9
77469;BME280;68840;50.272;12.818;2023-04-03T03:36:06;96797;;;1.1;59.9
77469;BME280;68840;50.272;12.818;2023-04-03T03:38:05;96797;;;1.1;59.6
77469;BME280;68840;50.272;12.818;2023-04-03T03:40:06;96798;;;1.1;59.5
77469;BME280;68840;50.272;12.818;2023-04-03T03:42:05;96800;;;1.1;59.7
77469;BME280;68840;50.272;12.818;2023-04-03T03:44:05;96800;;;1.0;59.9
77469;BME280;68840;50.272;12.818;2023-04-03T03:46:05;96802;;;1.0;59.9
77469;BME280;68840;50.272;12.818;2023-04-03T03:48:05;96804;;;1.0;59.4
77469;BME280;68840;50.272;12.818;2023-04-03T03:50:06;96805;;;0.9;59.7
77469;BME280;68840;50.272;12.818;2023-04-03T03:52:05;96806;;;0.8;60.5
77469;BME280;68840;50.272;12.818;2023-04-03T03:54:06;96809;;;0.8;60.6
77469;BME280;68840;50.272;12.818;2023-04-03T03:56:05;96811;;;0.7;60.2
77469;BME280;68840;50.272;12.818;2023-04-03T03:58:05;96810;;;0.7;60.4
77469;BME280;68840;50.272;12.818;2023-04-03T04:00:07;96811;;;0.6;61.1
77469;BME280;68840;50.272;12.818;2023-04-03T04:02:05;96812;;;0.5;61.2
77469;BME280;68840;50.272;12.818;2023-04-03T04:04:05;96813;;;0.5;61.2
77469;BME280;68840;50.272;12.818;2023-04-03T04:06:05;96814;;;0.5;61.6
77469;BME280;68840;50.272;12.818;2023-04-03T04:08:05;96814;;;0.4;61.8
77469;BME280;68840;50.272;12.818;2023-04-03T04:10:06;96816;;;0.4;62.0
77469;BME280;68840;50.272;12.818;2023-04-03T04:12:05;96816;;;0.4;62.1
77469;BME280;68840;50.272;12.818;2023-04-03T04:14:06;96816;;;0.3;62.1
77469;BME280;68840;50.272;12.818;2023-04-03T04:16:06;96814;;;0.3;62.6
77469;BME280;68840;50.272;12.818;2023-04-03T04:18:05;96815;;;0.3;62.6
77469;BME280;68840;50.272;12.818;2023-04-03T04:20:06;96817;;;0.2;62.3
77469;BME280;68840;50.272;12.818;2023-04-03T04:22:06;96818;;;0.2;62.5
77469;BME280;68840;50.272;12.818;2023-04-03T04:24:06;96820;;;0.1;62.7
77469;BME280;68840;50.272;12.818;2023-04-03T04:26:05;96823;;;0.1;62.4
77469;BME280;68840;50.272;12.818;2023-04-03T04:28:05;96824;;;0.0;62.7
77469;BME280;68840;50.272;12.818;2023-04-03T04:30:06;96825;;;-0.0;63.2
77469;BME280;68840;50.272;12.818;2023-04-03T04:32:05;96826;;;-0.1;63.5
77469;BME280;68840;50.272;12.818;2023-04-03T04:34:05;96828;;;-0.1;63.9
77469;BME280;68840;50.272;12.818;2023-04-03T04:36:05;96829;;;-0.2;63.9
77469;BME280;68840;50.272;12.818;2023-04-03T04:38:06;96835;;;-0.2;63.9
77469;BME280;68840;50.272;12.818;2023-04-03T04:40:06;96837;;;-0.3;64.1
77469;BME280;68840;50.272;12.818;2023-04-03T04:42:07;96840;;;-0.3;64.5
77469;BME280;68840;50.272;12.818;2023-04-03T04:44:05;96842;;;-0.3;64.4
77469;BME280;68840;50.272;12.818;2023-04-03T04:46:07;96845;;;-0.4;64.7
77469;BME280;68840;50.272;12.818;2023-04-03T04:48:05;96848;;;-0.4;65.2
77469;BME280;68840;50.272;12.818;2023-04-03T04:50:06;96849;;;-0.4;65.0
77469;BME280;68840;50.272;12.818;2023-04-03T04:52:06;96849;;;-0.4;65.2
77469;BME280;68840;50.272;12.818;2023-04-03T04:54:05;96852;;;-0.4;65.4
77469;BME280;68840;50.272;12.818;2023-04-03T04:56:06;96853;;;-0.3;65.8
77469;BME280;68840;50.272;12.818;2023-04-03T04:58:05;96855;;;-0.3;65.8
77469;BME280;68840;50.272;12.818;2023-04-03T05:00:06;96857;;;-0.3;65.8
77469;BME280;68840;50.272;12.818;2023-04-03T05:02:05;96857;;;-0.2;65.6
77469;BME280;68840;50.272;12.818;2023-04-03T05:04:06;96859;;;-0.2;65.4
77469;BME280;68840;50.272;12.818;2023-04-03T05:06:05;96859;;;-0.2;64.9
77469;BME280;68840;50.272;12.818;2023-04-03T05:08:06;96860;;;-0.1;64.0
77469;BME280;68840;50.272;12.818;2023-04-03T05:10:07;96860;;;-0.1;63.8
77469;BME280;68840;50.272;12.818;2023-04-03T05:12:06;96860;;;-0.1;63.7
77469;BME280;68840;50.272;12.818;2023-04-03T05:14:06;96856;;;-0.1;63.5
77469;BME280;68840;50.272;12.818;2023-04-03T05:16:06;96858;;;-0.0;63.0
77469;BME280;68840;50.272;12.818;2023-04-03T05:18:05;96856;;;-0.0;62.7
77469;BME280;68840;50.272;12.818;2023-04-03T05:20:06;96858;;;-0.0;62.4
77469;BME280;68840;50.272;12.818;2023-04-03T05:22:05;96858;;;0.0;61.6
77469;BME280;68840;50.272;12.818;2023-04-03T05:24:09;96860;;;0.0;61.2
77469;BME280;68840;50.272;12.818;2023-04-03T05:26:06;96864;;;0.0;61.1
77469;BME280;68840;50.272;12.818;2023-04-03T05:28:06;96864;;;0.0;60.7
77469;BME280;68840;50.272;12.818;2023-04-03T05:30:06;96863;;;0.0;59.9
77469;BME280;68840;50.272;12.818;2023-04-03T05:32:05;96867;;;0.0;60.0
77469;BME280;68840;50.272;12.818;2023-04-03T05:34:06;96870;;;0.1;59.7
77469;BME280;68840;50.272;12.818;2023-04-03T05:36:06;96872;;;0.1;59.5
77469;BME280;68840;50.272;12.818;2023-04-03T05:38:05;96873;;;0.3;59.7
77469;BME280;68840;50.272;12.818;2023-04-03T05:40:06;96877;;;0.5;58.8
77469;BME280;68840;50.272;12.818;2023-04-03T05:42:06;96878;;;0.9;57.8
77469;BME280;68840;50.272;12.818;2023-04-03T05:44:05;96879;;;1.2;56.2
77469;BME280;68840;50.272;12.818;2023-04-03T05:46:10;96879;;;1.5;55.5
77469;BME280;68840;50.272;12.818;2023-04-03T05:48:05;96880;;;1.9;54.3
77469;BME280;68840;50.272;12.818;2023-04-03T05:50:06;96879;;;2.2;54.0
77469;BME280;68840;50.272;12.818;2023-04-03T05:52:05;96879;;;2.6;53.5
77469;BME280;68840;50.272;12.818;2023-04-03T05:54:11;96877;;;3.0;51.8
77469;BME280;68840;50.272;12.818;2023-04-03T05:56:05;96878;;;3.4;50.9
77469;BME280;68840;50.272;12.818;2023-04-03T05:58:06;96880;;;3.7;50.5
77469;BME280;68840;50.272;12.818;2023-04-03T06:00:07;96882;;;4.0;49.4
77469;BME280;68840;50.272;12.818;2023-04-03T06:02:06;96884;;;4.3;48.7
77469;BME280;68840;50.272;12.818;2023-04-03T06:04:08;96883;;;4.5;48.0
77469;BME280;68840;50.272;12.818;2023-04-03T06:06:06;96880;;;4.7;46.6
77469;BME280;68840;50.272;12.818;2023-04-03T06:08:05;96880;;;4.9;45.4
77469;BME280;68840;50.272;12.818;2023-04-03T06:10:06;96884;;;5.1;45.2
77469;BME280;68840;50.272;12.818;2023-04-03T06:12:06;96890;;;5.3;44.2
77469;BME280;68840;50.272;12.818;2023-04-03T06:14:06;96893;;;5.5;43.6
77469;BME280;68840;50.272;12.818;2023-04-03T06:16:06;96894;;;5.8;43.1
77469;BME280;68840;50.272;12.818;2023-04-03T06:18:06;96897;;;6.1;43.1
77469;BME280;68840;50.272;12.818;2023-04-03T06:20:06;96898;;;6.5;42.3
77469;BME280;68840;50.272;12.818;2023-04-03T06:22:05;96894;;;6.9;40.2
77469;BME280;68840;50.272;12.818;2023-04-03T06:24:06;96895;;;7.3;39.1
77469;BME280;68840;50.272;12.818;2023-04-03T06:26:05;96896;;;7.6;38.4
77469;BME280;68840;50.272;12.818;2023-04-03T06:28:06;96894;;;7.9;37.9
77469;BME280;68840;50.272;12.818;2023-04-03T06:30:07;96894;;;8.2;37.6
77469;BME280;68840;50.272;12.818;2023-04-03T06:32:06;96894;;;8.5;36.6
77469;BME280;68840;50.272;12.818;2023-04-03T06:34:06;96894;;;8.9;36.4
77469;BME280;68840;50.272;12.818;2023-04-03T06:36:06;96896;;;9.2;36.3
77469;BME280;68840;50.272;12.818;2023-04-03T06:38:09;96902;;;9.5;35.4
77469;BME280;68840;50.272;12.818;2023-04-03T06:40:06;96905;;;9.8;34.9
77469;BME280;68840;50.272;12.818;2023-04-03T06:42:05;96910;;;10.1;33.6
77469;BME280;68840;50.272;12.818;2023-04-03T06:44:06;96910;;;10.0;33.2
77469;BME280;68840;50.272;12.818;2023-04-03T06:46:06;96912;;;9.7;33.7
77469;BME280;68840;50.272;12.818;2023-04-03T06:48:06;96913;;;9.3;33.6
77469;BME280;68840;50.272;12.818;2023-04-03T06:50:07;96917;;;8.7;34.1
77469;BME280;68840;50.272;12.818;2023-04-03T06:52:05;96916;;;8.2;34.6
77469;BME280;68840;50.272;12.818;2023-04-03T06:54:06;96913;;;7.6;35.0
77469;BME280;68840;50.272;12.818;2023-04-03T06:56:05;96916;;;7.1;35.9
77469;BME280;68840;50.272;12.818;2023-04-03T06:58:06;96923;;;6.6;36.4
77469;BME280;68840;50.272;12.818;2023-04-03T07:00:10;96925;;;6.2;37.0
77469;BME280;68840;50.272;12.818;2023-04-03T07:02:06;96929;;;5.8;37.9
77469;BME280;68840;50.272;12.818;2023-04-03T07:04:05;96929;;;5.6;38.5
77469;BME280;68840;50.272;12.818;2023-04-03T07:06:07;96933;;;5.3;38.5
77469;BME280;68840;50.272;12.818;2023-04-03T07:08:06;96934;;;5.1;39.4
77469;BME280;68840;50.272;12.818;2023-04-03T07:10:06;96935;;;5.0;39.8
77469;BME280;68840;50.272;12.818;2023-04-03T07:12:06;96937;;;4.8;40.3
77469;BME280;68840;50.272;12.818;2023-04-03T07:14:07;96941;;;4.7;40.9
77469;BME280;68840;50.272;12.818;2023-04-03T07:16:06;96942;;;4.7;40.7
77469;BME280;68840;50.272;12.818;2023-04-03T07:18:05;96943;;;4.6;41.4
77469;BME280;68840;50.272;12.818;2023-04-03T07:20:06;96942;;;4.6;41.6
77469;BME280;68840;50.272;12.818;2023-04-03T07:22:05;96942;;;4.6;41.1
77469;BME280;68840;50.272;12.818;2023-04-03T07:24:05;96944;;;4.6;41.7
77469;BME280;68840;50.272;12.818;2023-04-03T07:26:06;96946;;;4.6;42.4
77469;BME280;68840;50.272;12.818;2023-04-03T07:28:08;96946;;;4.6;41.6
77469;BME280;68840;50.272;12.818;2023-04-03T07:30:06;96946;;;4.7;42.6
77469;BME280;68840;50.272;12.818;2023-04-03T07:32:06;96949;;;4.7;42.4
77469;BME280;68840;50.272;12.818;2023-04-03T07:34:05;96950;;;4.8;41.7
77469;BME280;68840;50.272;12.818;2023-04-03T07:36:07;96952;;;4.8;41.6
77469;BME280;68840;50.272;12.818;2023-04-03T07:38:06;96951;;;4.9;42.4
77469;BME280;68840;50.272;12.818;2023-04-03T07:40:06;96954;;;5.0;42.5
77469;BME280;68840;50.272;12.818;2023-04-03T07:42:05;96953;;;5.1;40.1
77469;BME280;68840;50.272;12.818;2023-04-03T07:44:06;96955;;;5.1;40.2
77469;BME280;68840;50.272;12.818;2023-04-03T07:46:05;96956;;;5.1;41.2
77469;BME280;68840;50.272;12.818;2023-04-03T07:48:06;96961;;;5.1;40.9
77469;BME280;68840;50.272;12.818;2023-04-03T07:50:06;96962;;;5.1;40.7
77469;BME280;68840;50.272;12.818;2023-04-03T07:52:07;96960;;;5.0;40.6
77469;BME280;68840;50.272;12.818;2023-04-03T07:54:05;96961;;;5.0;40.4
77469;BME280;68840;50.272;12.818;2023-04-03T07:56:06;96966;;;4.9;40.3
77469;BME280;68840;50.272;12.818;2023-04-03T07:58:06;96966;;;4.9;40.1
77469;BME280;68840;50.272;12.818;2023-04-03T08:00:07;96966;;;4.9;39.7
77469;BME280;68840;50.272;12.818;2023-04-03T08:02:05;96966;;;4.8;40.0
77469;BME280;68840;50.272;12.818;2023-04-03T08:04:06;96968;;;4.8;39.8
77469;BME280;68840;50.272;12.818;2023-04-03T08:06:07;96967;;;4.8;40.7
77469;BME280;68840;50.272;12.818;2023-04-03T08:08:06;96968;;;4.8;40.4
77469;BME280;68840;50.272;12.818;2023-04-03T08:10:06;96971;;;4.8;41.4
77469;BME280;68840;50.272;12.818;2023-04-03T08:12:05;96969;;;4.9;41.5
77469;BME280;68840;50.272;12.818;2023-04-03T08:14:06;96973;;;4.9;41.1
77469;BME280;68840;50.272;12.818;2023-04-03T08:16:09;96967;;;5.0;40.6
77469;BME280;68840;50.272;12.818;2023-04-03T08:18:05;96970;;;5.1;40.0
77469;BME280;68840;50.272;12.818;2023-04-03T08:20:07;96969;;;5.2;39.8
77469;BME280;68840;50.272;12.818;2023-04-03T08:22:06;96971;;;5.2;39.6
77469;BME280;68840;50.272;12.818;2023-04-03T08:24:05;96972;;;5.4;39.4
77469;BME280;68840;50.272;12.818;2023-04-03T08:26:06;96971;;;5.4;38.6
77469;BME280;68840;50.272;12.818;2023-04-03T08:28:06;96969;;;5.5;38.2
77469;BME280;68840;50.272;12.818;2023-04-03T08:30:07;96972;;;5.5;37.8
77469;BME280;68840;50.272;12.818;2023-04-03T08:32:06;96972;;;5.5;38.3
77469;BME280;68840;50.272;12.818;2023-04-03T08:34:05;96970;;;5.5;38.7
77469;BME280;68840;50.272;12.818;2023-04-03T08:36:14;96973;;;5.5;37.7
77469;BME280;68840;50.272;12.818;2023-04-03T08:38:06;96972;;;5.5;37.7
77469;BME280;68840;50.272;12.818;2023-04-03T08:40:10;96973;;;5.5;37.2
77469;BME280;68840;50.272;12.818;2023-04-03T08:42:16;96977;;;5.4;38.1
77469;BME280;68840;50.272;12.818;2023-04-03T08:44:15;96974;;;5.5;37.0
77469;BME280;68840;50.272;12.818;2023-04-03T08:46:13;96974;;;5.4;36.6
77469;BME280;68840;50.272;12.818;2023-04-03T08:48:10;96975;;;5.3;37.1
77469;BME280;68840;50.272;12.818;2023-04-03T08:50:07;96975;;;5.4;37.8
77469;BME280;68840;50.272;12.818;2023-04-03T08:52:11;96977;;;5.5;38.6
77469;BME280;68840;50.272;12.818;2023-04-03T08:54:15;96980;;;5.9;37.7
77469;BME280;68840;50.272;12.818;2023-04-03T08:56:09;96980;;;6.2;36.6
77469;BME280;68840;50.272;12.818;2023-04-03T08:58:09;96984;;;6.7;37.3
77469;BME280;68840;50.272;12.818;2023-04-03T09:00:13;96981;;;7.4;35.9
77469;BME280;68840;50.272;12.818;2023-04-03T09:02:21;96982;;;8.2;35.3
77469;BME280;68840;50.272;12.818;2023-04-03T09:04:11;96986;;;9.0;34.3
77469;BME280;68840;50.272;12.818;2023-04-03T09:06:12;96988;;;9.8;33.3
77469;BME280;68840;50.272;12.818;2023-04-03T09:08:13;96984;;;10.5;31.7
77469;BME280;68840;50.272;12.818;2023-04-03T09:10:06;96989;;;11.1;31.3
77469;BME280;68840;50.272;12.818;2023-04-03T09:12:14;96986;;;11.7;30.3
77469;BME280;68840;50.272;12.818;2023-04-03T09:14:13;96988;;;12.2;29.4
77469;BME280;68840;50.272;12.818;2023-04-03T09:16:16;96989;;;12.6;29.0
77469;BME280;68840;50.272;12.818;2023-04-03T09:18:13;96991;;;13.0;28.4
77469;BME280;68840;50.272;12.818;2023-04-03T09:20:16;96993;;;13.3;27.6
77469;BME280;68840;50.272;12.818;2023-04-03T09:22:13;96993;;;13.6;27.3
77469;BME280;68840;50.272;12.818;2023-04-03T09:24:08;96992;;;13.6;27.9
77469;BME280;68840;50.272;12.818;2023-04-03T09:26:09;96993;;;13.7;26.6
77469;BME280;68840;50.272;12.818;2023-04-03T09:28:09;96989;;;13.9;28.0
77469;BME280;68840;50.272;12.818;2023-04-03T09:30:08;96989;;;14.3;26.2
77469;BME280;68840;50.272;12.818;2023-04-03T09:32:18;96990;;;14.7;25.3
77469;BME280;68840;50.272;12.818;2023-04-03T09:34:09;96990;;;15.1;24.7
77469;BME280;68840;50.272;12.818;2023-04-03T09:36:05;96989;;;15.3;23.6
77469;BME280;68840;50.272;12.818;2023-04-03T09:38:16;96993;;;15.3;24.1
77469;BME280;68840;50.272;12.818;2023-04-03T09:40:27;96993;;;15.4;24.2
77469;BME280;68840;50.272;12.818;2023-04-03T09:42:16;96995;;;15.6;24.1
77469;BME280;68840;50.272;12.818;2023-04-03T09:44:20;96992;;;15.9;24.9
77469;BME280;68840;50.272;12.818;2023-04-03T09:46:17;96989;;;16.4;25.0
77469;BME280;68840;50.272;12.818;2023-04-03T09:48:12;96986;;;16.8;24.5
77469;BME280;68840;50.272;12.818;2023-04-03T09:50:18;96988;;;17.3;23.8
77469;BME280;68840;50.272;12.818;2023-04-03T09:52:19;96988;;;17.7;23.0
77469;BME280;68840;50.272;12.818;2023-04-03T09:54:32;96988;;;18.0;21.8
77469;BME280;68840;50.272;12.818;2023-04-03T09:56:19;96989;;;18.1;22.8
77469;BME280;68840;50.272;12.818;2023-04-03T09:58:23;96989;;;18.0;22.2
77469;BME280;68840;50.272;12.818;2023-04-03T10:00:18;96991;;;17.9;22.2
77469;BME280;68840;50.272;12.818;2023-04-03T10:02:21;96990;;;17.8;21.8
77469;BME280;68840;50.272;12.818;2023-04-03T10:04:09;96990;;;17.9;22.9
77469;BME280;68840;50.272;12.818;2023-04-03T10:06:21;96988;;;18.2;22.5
77469;BME280;68840;50.272;12.818;2023-04-03T10:08:20;96986;;;18.3;21.9
77469;BME280;68840;50.272;12.818;2023-04-03T10:10:17;96988;;;18.4;22.8
77469;BME280;68840;50.272;12.818;2023-04-03T10:12:07;96989;;;18.3;21.9
77469;BME280;68840;50.272;12.818;2023-04-03T10:14:16;96989;;;17.8;21.9
77469;BME280;68840;50.272;12.818;2023-04-03T10:16:09;96987;;;17.3;22.1
77469;BME280;68840;50.272;12.818;2023-04-03T10:18:12;96987;;;17.2;23.2
77469;BME280;68840;50.272;12.818;2023-04-03T10:20:12;96982;;;17.5;23.0
77469;BME280;68840;50.272;12.818;2023-04-03T10:22:16;96977;;;17.4;22.0
77469;BME280;68840;50.272;12.818;2023-04-03T10:24:11;96979;;;16.8;22.3
77469;BME280;68840;50.272;12.818;2023-04-03T10:26:17;96976;;;16.2;23.6
77469;BME280;68840;50.272;12.818;2023-04-03T10:28:10;96982;;;15.8;23.1
77469;BME280;68840;50.272;12.818;2023-04-03T10:30:19;96983;;;15.2;23.0
77469;BME280;68840;50.272;12.818;2023-04-03T10:32:22;96982;;;14.5;23.9
77469;BME280;68840;50.272;12.818;2023-04-03T10:34:06;96980;;;14.7;24.4
77469;BME280;68840;50.272;12.818;2023-04-03T10:36:12;96977;;;15.1;25.3
77469;BME280;68840;50.272;12.818;2023-04-03T10:38:12;96980;;;15.8;24.7
77469;BME280;68840;50.272;12.818;2023-04-03T10:40:18;96978;;;16.4;23.5
77469;BME280;68840;50.272;12.818;2023-04-03T10:42:13;96972;;;16.9;23.4
77469;BME280;68840;50.272;12.818;2023-04-03T10:44:14;96970;;;17.5;24.1
77469;BME280;68840;50.272;12.818;2023-04-03T10:46:11;96970;;;18.1;24.1
77469;BME280;68840;50.272;12.818;2023-04-03T10:48:11;96969;;;18.3;21.8
77469;BME280;68840;50.272;12.818;2023-04-03T10:50:22;96970;;;18.0;22.5
77469;BME280;68840;50.272;12.818;2023-04-03T10:52:13;96967;;;17.8;22.4
77469;BME280;68840;50.272;12.818;2023-04-03T10:54:10;96965;;;18.0;22.0
77469;BME280;68840;50.272;12.818;2023-04-03T10:56:13;96959;;;18.3;21.8
77469;BME280;68840;50.272;12.818;2023-04-03T10:58:09;96959;;;18.7;21.4
77469;BME280;68840;50.272;12.818;2023-04-03T11:00:14;96963;;;18.8;21.8
77469;BME280;68840;50.272;12.818;2023-04-03T11:02:10;96959;;;19.0;21.2
77469;BME280;68840;50.272;12.818;2023-04-03T11:04:06;96960;;;19.2;21.5
77469;BME280;68840;50.272;12.818;2023-04-03T11:06:09;96959;;;19.5;22.0
77469;BME280;68840;50.272;12.818;2023-04-03T11:08:13;96960;;;19.8;22.2
77469;BME280;68840;50.272;12.818;2023-04-03T11:10:13;96961;;;20.1;21.6
77469;BME280;68840;50.272;12.818;2023-04-03T11:12:11;96952;;;20.5;20.4
77469;BME280;68840;50.272;12.818;2023-04-03T11:14:13;96950;;;20.7;21.3
77469;BME280;68840;50.272;12.818;2023-04-03T11:16:06;96949;;;20.7;21.1
77469;BME280;68840;50.272;12.818;2023-04-03T11:18:08;96954;;;20.1;21.0